sensor_id;sensor_type;location;lat;lon;timestamp;pressure;altitude;pressure_sealevel;temperature;humidity
34696;BME280;75243;51.138;17.370;2023-12-28T00:00:43;100283.55;;;0.39;86.26
34696;BME280;75243;51.138;17.370;2023-12-28T00:03:44;100276.34;;;0.38;86.31
34696;BME280;75243;51.138;17.370;2023-12-28T00:06:45;100270.54;;;0.36;86.33
34696;BME280;75243;51.138;17.370;2023-12-28T00:09:53;100258.83;;;0.35;86.29
34696;BME280;75243;51.138;17.370;2023-12-28T00:12:56;100257.62;;;0.34;86.49
34696;BME280;75243;51.138;17.370;2023-12-28T00:16:00;100257.30;;;0.34;86.69
34696;BME280;75243;51.138;17.370;2023-12-28T00:19:01;100249.23;;;0.35;86.82
34696;BME280;75243;51.138;17.370;2023-12-28T00:22:02;100252.58;;;0.37;86.94
34696;BME280;75243;51.138;17.370;2023-12-28T00:25:11;100246.45;;;0.37;87.16
34696;BME280;75243;51.138;17.370;2023-12-28T00:28:23;100241.57;;;0.38;87.41
34696;BME280;75243;51.138;17.370;2023-12-28T00:31:23;100231.52;;;0.37;87.42
34696;BME280;75243;51.138;17.370;2023-12-28T00:34:24;100221.67;;;0.36;87.49
34696;BME280;75243;51.138;17.370;2023-12-28T00:37:45;100220.10;;;0.36;87.50
34696;BME280;75243;51.138;17.370;2023-12-28T00:40:46;100223.58;;;0.36;87.52
34696;BME280;75243;51.138;17.370;2023-12-28T00:43:49;100231.02;;;0.37;87.68
34696;BME280;75243;51.138;17.370;2023-12-28T00:46:52;100227.11;;;0.38;87.80
34696;BME280;75243;51.138;17.370;2023-12-28T00:49:53;100226.43;;;0.38;87.81
34696;BME280;75243;51.138;17.370;2023-12-28T00:52:57;100223.13;;;0.37;87.97
34696;BME280;75243;51.138;17.370;2023-12-28T00:55:58;100220.91;;;0.37;87.88
34696;BME280;75243;51.138;17.370;2023-12-28T00:58:59;100215.42;;;0.35;87.92
34696;BME280;75243;51.138;17.370;2023-12-28T01:02:02;100214.45;;;0.35;87.84
34696;BME280;75243;51.138;17.370;2023-12-28T01:05:03;100210.39;;;0.33;87.97
34696;BME280;75243;51.138;17.370;2023-12-28T01:08:07;100208.63;;;0.33;88.12
34696;BME280;75243;51.138;17.370;2023-12-28T01:11:17;100211.88;;;0.34;88.24
34696;BME280;75243;51.138;17.370;2023-12-28T01:14:21;100212.54;;;0.37;88.52
34696;BME280;75243;51.138;17.370;2023-12-28T01:17:21;100204.92;;;0.39;88.48
34696;BME280;75243;51.138;17.370;2023-12-28T01:20:22;100204.05;;;0.39;88.45
34696;BME280;75243;51.138;17.370;2023-12-28T01:23:32;100200.44;;;0.38;88.45
34696;BME280;75243;51.138;17.370;2023-12-28T01:26:44;100207.02;;;0.36;88.54
34696;BME280;75243;51.138;17.370;2023-12-28T01:30:05;100199.31;;;0.37;88.58
34696;BME280;75243;51.138;17.370;2023-12-28T01:33:06;100194.27;;;0.37;88.77
34696;BME280;75243;51.138;17.370;2023-12-28T01:36:19;100200.16;;;0.37;88.82
34696;BME280;75243;51.138;17.370;2023-12-28T01:39:26;100203.84;;;0.34;88.60
34696;BME280;75243;51.138;17.370;2023-12-28T01:42:28;100197.18;;;0.30;88.88
34696;BME280;75243;51.138;17.370;2023-12-28T01:45:30;100191.40;;;0.28;88.69
34696;BME280;75243;51.138;17.370;2023-12-28T01:48:32;100191.00;;;0.26;88.72
34696;BME280;75243;51.138;17.370;2023-12-28T01:51:33;100187.36;;;0.26;89.02
34696;BME280;75243;51.138;17.370;2023-12-28T01:54:38;100180.54;;;0.24;88.91
34696;BME280;75243;51.138;17.370;2023-12-28T01:57:39;100173.96;;;0.17;89.11
34696;BME280;75243;51.138;17.370;2023-12-28T02:00:41;100175.20;;;0.14;89.54
34696;BME280;75243;51.138;17.370;2023-12-28T02:03:43;100174.50;;;0.09;89.22
34696;BME280;75243;51.138;17.370;2023-12-28T02:06:47;100160.27;;;0.12;89.67
34696;BME280;75243;51.138;17.370;2023-12-28T02:10:08;100148.25;;;0.12;89.48
34696;BME280;75243;51.138;17.370;2023-12-28T02:13:09;100142.33;;;0.12;89.64
34696;BME280;75243;51.138;17.370;2023-12-28T02:16:17;100136.08;;;0.12;89.77
34696;BME280;75243;51.138;17.370;2023-12-28T02:19:45;100129.46;;;0.14;89.86
34696;BME280;75243;51.138;17.370;2023-12-28T02:22:52;100129.16;;;0.19;90.31
34696;BME280;75243;51.138;17.370;2023-12-28T02:25:53;100134.48;;;0.25;90.31
34696;BME280;75243;51.138;17.370;2023-12-28T02:28:54;100132.66;;;0.29;90.11
34696;BME280;75243;51.138;17.370;2023-12-28T02:32:11;100119.14;;;0.31;90.38
34696;BME280;75243;51.138;17.370;2023-12-28T02:35:34;100113.96;;;0.36;90.31
34696;BME280;75243;51.138;17.370;2023-12-28T02:38:48;100107.39;;;0.40;90.39
34696;BME280;75243;51.138;17.370;2023-12-28T02:45:35;100105.32;;;0.48;90.37
34696;BME280;75243;51.138;17.370;2023-12-28T02:48:37;100101.79;;;0.51;90.53
34696;BME280;75243;51.138;17.370;2023-12-28T02:51:40;100099.08;;;0.55;90.74
34696;BME280;75243;51.138;17.370;2023-12-28T02:54:53;100094.14;;;0.59;90.34
34696;BME280;75243;51.138;17.370;2023-12-28T02:57:59;100082.77;;;0.60;90.36
34696;BME280;75243;51.138;17.370;2023-12-28T03:01:06;100085.65;;;0.61;90.44
34696;BME280;75243;51.138;17.370;2023-12-28T03:04:14;100085.19;;;0.62;90.53
34696;BME280;75243;51.138;17.370;2023-12-28T03:07:22;100084.33;;;0.62;90.38
34696;BME280;75243;51.138;17.370;2023-12-28T03:10:27;100066.80;;;0.59;90.35
34696;BME280;75243;51.138;17.370;2023-12-28T03:13:28;100065.95;;;0.56;90.57
34696;BME280;75243;51.138;17.370;2023-12-28T03:16:28;100060.85;;;0.55;90.32
34696;BME280;75243;51.138;17.370;2023-12-28T03:19:29;100052.59;;;0.53;90.52
34696;BME280;75243;51.138;17.370;2023-12-28T03:22:33;100054.31;;;0.56;90.79
34696;BME280;75243;51.138;17.370;2023-12-28T03:25:36;100056.90;;;0.59;90.80
34696;BME280;75243;51.138;17.370;2023-12-28T03:28:42;100051.05;;;0.60;90.56
34696;BME280;75243;51.138;17.370;2023-12-28T03:35:34;100043.90;;;0.63;90.71
34696;BME280;75243;51.138;17.370;2023-12-28T03:39:03;100045.25;;;0.66;90.81
34696;BME280;75243;51.138;17.370;2023-12-28T03:42:34;100044.13;;;0.72;90.99
34696;BME280;75243;51.138;17.370;2023-12-28T03:45:57;100040.95;;;0.78;90.95
34696;BME280;75243;51.138;17.370;2023-12-28T03:49:04;100028.61;;;0.82;90.81
34696;BME280;75243;51.138;17.370;2023-12-28T03:52:13;100024.25;;;0.82;90.62
34696;BME280;75243;51.138;17.370;2023-12-28T03:58:47;100004.48;;;0.79;90.70
34696;BME280;75243;51.138;17.370;2023-12-28T04:01:51;99998.94;;;0.83;90.73
34696;BME280;75243;51.138;17.370;2023-12-28T04:04:55;100004.73;;;0.87;90.76
34696;BME280;75243;51.138;17.370;2023-12-28T04:08:12;100005.62;;;0.98;91.04
34696;BME280;75243;51.138;17.370;2023-12-28T04:11:35;100001.09;;;1.10;91.18
34696;BME280;75243;51.138;17.370;2023-12-28T04:14:36;99998.80;;;1.25;91.30
34696;BME280;75243;51.138;17.370;2023-12-28T04:17:37;99999.02;;;1.44;91.24
34696;BME280;75243;51.138;17.370;2023-12-28T04:20:38;99999.77;;;1.60;90.83
34696;BME280;75243;51.138;17.370;2023-12-28T04:23:39;99993.13;;;1.72;90.56
34696;BME280;75243;51.138;17.370;2023-12-28T04:26:40;99994.23;;;1.88;90.12
34696;BME280;75243;51.138;17.370;2023-12-28T04:29:41;99989.10;;;2.00;90.07
34696;BME280;75243;51.138;17.370;2023-12-28T04:32:42;99981.17;;;2.08;89.83
34696;BME280;75243;51.138;17.370;2023-12-28T04:35:43;99989.46;;;2.14;89.48
34696;BME280;75243;51.138;17.370;2023-12-28T04:38:47;99995.94;;;2.21;89.37
34696;BME280;75243;51.138;17.370;2023-12-28T04:41:48;99993.91;;;2.27;89.14
34696;BME280;75243;51.138;17.370;2023-12-28T04:44:48;99995.27;;;2.32;88.85
34696;BME280;75243;51.138;17.370;2023-12-28T04:47:49;99990.70;;;2.37;88.58
34696;BME280;75243;51.138;17.370;2023-12-28T04:50:50;99989.71;;;2.42;88.43
34696;BME280;75243;51.138;17.370;2023-12-28T04:53:51;99987.39;;;2.46;88.05
34696;BME280;75243;51.138;17.370;2023-12-28T04:56:52;99978.08;;;2.46;87.75
34696;BME280;75243;51.138;17.370;2023-12-28T04:59:54;99977.23;;;2.46;87.37
34696;BME280;75243;51.138;17.370;2023-12-28T05:02:55;99985.72;;;2.49;87.62
34696;BME280;75243;51.138;17.370;2023-12-28T05:05:57;99992.48;;;2.52;87.50
34696;BME280;75243;51.138;17.370;2023-12-28T05:08:58;100000.56;;;2.52;87.31
34696;BME280;75243;51.138;17.370;2023-12-28T05:11:59;100008.30;;;2.49;87.23
34696;BME280;75243;51.138;17.370;2023-12-28T05:14:59;100011.31;;;2.46;87.08
34696;BME280;75243;51.138;17.370;2023-12-28T05:18:09;100007.34;;;2.38;86.87
34696;BME280;75243;51.138;17.370;2023-12-28T05:21:11;100000.33;;;2.32;86.65
34696;BME280;75243;51.138;17.370;2023-12-28T05:24:13;99998.39;;;2.28;86.80
34696;BME280;75243;51.138;17.370;2023-12-28T05:30:31;100010.86;;;2.22;86.49
34696;BME280;75243;51.138;17.370;2023-12-28T05:33:32;100021.20;;;2.19;86.46
34696;BME280;75243;51.138;17.370;2023-12-28T05:36:32;100022.02;;;2.15;86.26
34696;BME280;75243;51.138;17.370;2023-12-28T05:39:33;100014.82;;;2.11;86.07
34696;BME280;75243;51.138;17.370;2023-12-28T05:42:34;100024.74;;;2.07;86.12
34696;BME280;75243;51.138;17.370;2023-12-28T05:45:38;100029.80;;;2.07;86.07
34696;BME280;75243;51.138;17.370;2023-12-28T05:48:39;100023.89;;;2.04;85.96
34696;BME280;75243;51.138;17.370;2023-12-28T05:54:58;100023.79;;;1.94;85.91
34696;BME280;75243;51.138;17.370;2023-12-28T05:58:19;100026.18;;;1.90;85.95
34696;BME280;75243;51.138;17.370;2023-12-28T06:01:22;100034.13;;;1.91;86.23
34696;BME280;75243;51.138;17.370;2023-12-28T06:04:26;100037.16;;;1.92;86.22
34696;BME280;75243;51.138;17.370;2023-12-28T06:07:27;100040.23;;;1.91;86.00
34696;BME280;75243;51.138;17.370;2023-12-28T06:10:33;100038.48;;;1.86;85.75
34696;BME280;75243;51.138;17.370;2023-12-28T06:13:41;100037.20;;;1.77;85.65
34696;BME280;75243;51.138;17.370;2023-12-28T06:16:45;100035.59;;;1.71;85.71
34696;BME280;75243;51.138;17.370;2023-12-28T06:19:51;100030.36;;;1.73;86.06
34696;BME280;75243;51.138;17.370;2023-12-28T06:22:52;100033.17;;;1.83;86.20
34696;BME280;75243;51.138;17.370;2023-12-28T06:26:04;100032.63;;;1.85;86.06
34696;BME280;75243;51.138;17.370;2023-12-28T06:29:07;100030.33;;;1.86;85.90
34696;BME280;75243;51.138;17.370;2023-12-28T06:32:12;100028.16;;;1.82;85.68
34696;BME280;75243;51.138;17.370;2023-12-28T06:35:13;100030.13;;;1.74;85.52
34696;BME280;75243;51.138;17.370;2023-12-28T06:38:14;100045.37;;;1.68;85.51
34696;BME280;75243;51.138;17.370;2023-12-28T06:41:14;100046.14;;;1.58;85.37
34696;BME280;75243;51.138;17.370;2023-12-28T06:44:18;100042.64;;;1.46;85.38
34696;BME280;75243;51.138;17.370;2023-12-28T06:47:19;100047.20;;;1.41;85.54
34696;BME280;75243;51.138;17.370;2023-12-28T06:50:19;100053.28;;;1.38;85.69
34696;BME280;75243;51.138;17.370;2023-12-28T06:53:20;100050.55;;;1.42;86.04
34696;BME280;75243;51.138;17.370;2023-12-28T06:56:21;100057.48;;;1.55;86.32
34696;BME280;75243;51.138;17.370;2023-12-28T06:59:22;100039.05;;;1.66;85.91
34696;BME280;75243;51.138;17.370;2023-12-28T07:02:34;100027.57;;;1.87;85.97
34696;BME280;75243;51.138;17.370;2023-12-28T07:09:17;100032.08;;;2.28;85.87
34696;BME280;75243;51.138;17.370;2023-12-28T07:12:21;100023.96;;;2.44;85.77
34696;BME280;75243;51.138;17.370;2023-12-28T07:15:24;100028.52;;;2.63;85.73
34696;BME280;75243;51.138;17.370;2023-12-28T07:18:25;100031.65;;;2.79;85.52
34696;BME280;75243;51.138;17.370;2023-12-28T07:21:26;100036.26;;;2.98;85.49
34696;BME280;75243;51.138;17.370;2023-12-28T07:24:26;100043.92;;;3.16;85.13
34696;BME280;75243;51.138;17.370;2023-12-28T07:27:30;100050.85;;;3.39;84.97
34696;BME280;75243;51.138;17.370;2023-12-28T07:30:53;100048.69;;;3.64;84.76
34696;BME280;75243;51.138;17.370;2023-12-28T07:33:54;100056.81;;;3.87;84.37
34696;BME280;75243;51.138;17.370;2023-12-28T07:40:50;100059.58;;;4.38;83.65
34696;BME280;75243;51.138;17.370;2023-12-28T07:43:53;100054.63;;;4.64;83.09
34696;BME280;75243;51.138;17.370;2023-12-28T07:47:07;100057.38;;;4.93;82.35
34696;BME280;75243;51.138;17.370;2023-12-28T07:50:17;100060.27;;;5.16;81.98
34696;BME280;75243;51.138;17.370;2023-12-28T07:53:18;100064.92;;;5.27;81.40
34696;BME280;75243;51.138;17.370;2023-12-28T07:56:26;100071.96;;;5.37;81.38
34696;BME280;75243;51.138;17.370;2023-12-28T07:59:30;100070.98;;;5.45;81.14
34696;BME280;75243;51.138;17.370;2023-12-28T08:02:30;100069.67;;;5.51;80.79
34696;BME280;75243;51.138;17.370;2023-12-28T08:05:31;100070.18;;;5.59;80.46
34696;BME280;75243;51.138;17.370;2023-12-28T08:08:32;100064.27;;;5.65;80.41
34696;BME280;75243;51.138;17.370;2023-12-28T08:11:33;100073.11;;;5.70;79.94
34696;BME280;75243;51.138;17.370;2023-12-28T08:14:34;100075.20;;;5.74;79.67
34696;BME280;75243;51.138;17.370;2023-12-28T08:17:34;100066.63;;;5.78;79.55
34696;BME280;75243;51.138;17.370;2023-12-28T08:20:54;100067.02;;;5.81;78.65
34696;BME280;75243;51.138;17.370;2023-12-28T08:24:08;100069.91;;;5.86;78.67
34696;BME280;75243;51.138;17.370;2023-12-28T08:27:09;100083.17;;;5.89;78.39
34696;BME280;75243;51.138;17.370;2023-12-28T08:30:10;100094.02;;;5.89;78.45
34696;BME280;75243;51.138;17.370;2023-12-28T08:33:10;100097.64;;;5.88;78.38
34696;BME280;75243;51.138;17.370;2023-12-28T08:36:11;100093.09;;;5.92;78.32
34696;BME280;75243;51.138;17.370;2023-12-28T08:39:12;100088.41;;;5.96;77.89
34696;BME280;75243;51.138;17.370;2023-12-28T08:42:13;100082.86;;;6.00;77.57
34696;BME280;75243;51.138;17.370;2023-12-28T08:45:14;100090.21;;;6.07;77.61
34696;BME280;75243;51.138;17.370;2023-12-28T08:48:15;100093.38;;;6.14;77.74
34696;BME280;75243;51.138;17.370;2023-12-28T08:51:16;100099.59;;;6.23;77.72
34696;BME280;75243;51.138;17.370;2023-12-28T08:54:17;100094.45;;;6.34;77.36
34696;BME280;75243;51.138;17.370;2023-12-28T08:57:18;100100.82;;;6.45;77.44
34696;BME280;75243;51.138;17.370;2023-12-28T09:00:18;100101.17;;;6.56;77.21
34696;BME280;75243;51.138;17.370;2023-12-28T09:03:19;100107.70;;;6.65;76.90
34696;BME280;75243;51.138;17.370;2023-12-28T09:06:23;100107.53;;;6.71;76.73
34696;BME280;75243;51.138;17.370;2023-12-28T09:09:24;100108.99;;;6.76;76.47
34696;BME280;75243;51.138;17.370;2023-12-28T09:12:24;100108.55;;;6.81;76.24
34696;BME280;75243;51.138;17.370;2023-12-28T09:15:25;100104.75;;;6.84;76.04
34696;BME280;75243;51.138;17.370;2023-12-28T09:18:26;100096.45;;;6.86;75.53
34696;BME280;75243;51.138;17.370;2023-12-28T09:21:26;100110.90;;;6.90;75.14
34696;BME280;75243;51.138;17.370;2023-12-28T09:24:47;100127.99;;;6.93;74.98
34696;BME280;75243;51.138;17.370;2023-12-28T09:27:48;100128.38;;;6.94;75.21
34696;BME280;75243;51.138;17.370;2023-12-28T09:30:52;100117.19;;;6.94;75.31
34696;BME280;75243;51.138;17.370;2023-12-28T09:33:57;100125.79;;;6.94;75.51
34696;BME280;75243;51.138;17.370;2023-12-28T09:37:10;100122.07;;;6.94;75.70
34696;BME280;75243;51.138;17.370;2023-12-28T09:40:11;100123.21;;;6.93;75.86
34696;BME280;75243;51.138;17.370;2023-12-28T09:43:41;100115.64;;;6.94;76.06
34696;BME280;75243;51.138;17.370;2023-12-28T09:46:46;100108.13;;;6.95;75.89
34696;BME280;75243;51.138;17.370;2023-12-28T09:49:47;100107.66;;;6.96;75.56
34696;BME280;75243;51.138;17.370;2023-12-28T09:52:50;100109.78;;;6.98;75.16
34696;BME280;75243;51.138;17.370;2023-12-28T09:55:53;100108.11;;;7.01;74.82
34696;BME280;75243;51.138;17.370;2023-12-28T09:58:55;100097.30;;;7.03;74.85
34696;BME280;75243;51.138;17.370;2023-12-28T10:02:00;100093.85;;;7.05;74.76
34696;BME280;75243;51.138;17.370;2023-12-28T10:05:01;100101.53;;;7.07;74.82
34696;BME280;75243;51.138;17.370;2023-12-28T10:08:02;100104.59;;;7.08;75.11
34696;BME280;75243;51.138;17.370;2023-12-28T10:11:04;100102.33;;;7.11;74.91
34696;BME280;75243;51.138;17.370;2023-12-28T10:14:08;100093.08;;;7.14;74.90
34696;BME280;75243;51.138;17.370;2023-12-28T10:17:18;100091.80;;;7.18;74.89
34696;BME280;75243;51.138;17.370;2023-12-28T10:20:19;100079.65;;;7.23;74.79
34696;BME280;75243;51.138;17.370;2023-12-28T10:23:20;100073.32;;;7.26;74.54
34696;BME280;75243;51.138;17.370;2023-12-28T10:26:24;100079.48;;;7.32;74.55
34696;BME280;75243;51.138;17.370;2023-12-28T10:29:25;100085.33;;;7.37;74.50
34696;BME280;75243;51.138;17.370;2023-12-28T10:35:58;100092.05;;;7.48;74.32
34696;BME280;75243;51.138;17.370;2023-12-28T10:39:03;100092.77;;;7.53;73.76
34696;BME280;75243;51.138;17.370;2023-12-28T10:42:09;100096.31;;;7.56;73.79
34696;BME280;75243;51.138;17.370;2023-12-28T10:45:15;100109.63;;;7.59;74.08
34696;BME280;75243;51.138;17.370;2023-12-28T10:48:28;100109.78;;;7.60;73.67
34696;BME280;75243;51.138;17.370;2023-12-28T10:51:34;100109.25;;;7.62;73.45
34696;BME280;75243;51.138;17.370;2023-12-28T11:01:56;100118.71;;;7.67;73.35
34696;BME280;75243;51.138;17.370;2023-12-28T11:05:00;100114.06;;;7.70;73.33
34696;BME280;75243;51.138;17.370;2023-12-28T11:08:06;100100.44;;;7.72;73.07
34696;BME280;75243;51.138;17.370;2023-12-28T11:11:51;100100.66;;;7.77;73.09
34696;BME280;75243;51.138;17.370;2023-12-28T11:15:02;100094.60;;;7.81;72.91
34696;BME280;75243;51.138;17.370;2023-12-28T11:18:14;100094.50;;;7.88;72.90
34696;BME280;75243;51.138;17.370;2023-12-28T11:21:16;100094.91;;;7.93;72.64
34696;BME280;75243;51.138;17.370;2023-12-28T11:24:38;100083.89;;;7.97;72.72
34696;BME280;75243;51.138;17.370;2023-12-28T11:27:42;100085.60;;;8.03;72.98
34696;BME280;75243;51.138;17.370;2023-12-28T11:30:43;100084.73;;;8.06;72.81
34696;BME280;75243;51.138;17.370;2023-12-28T11:33:50;100085.01;;;8.11;72.62
34696;BME280;75243;51.138;17.370;2023-12-28T11:37:08;100087.48;;;8.14;72.68
34696;BME280;75243;51.138;17.370;2023-12-28T11:40:20;100080.94;;;8.18;72.70
34696;BME280;75243;51.138;17.370;2023-12-28T11:43:21;100076.70;;;8.22;72.73
34696;BME280;75243;51.138;17.370;2023-12-28T11:46:25;100075.04;;;8.24;72.73
34696;BME280;75243;51.138;17.370;2023-12-28T11:53:12;100071.89;;;8.29;72.62
34696;BME280;75243;51.138;17.370;2023-12-28T11:56:16;100075.17;;;8.32;72.60
34696;BME280;75243;51.138;17.370;2023-12-28T11:59:20;100065.67;;;8.34;72.59
34696;BME280;75243;51.138;17.370;2023-12-28T12:02:21;100062.17;;;8.35;72.39
34696;BME280;75243;51.138;17.370;2023-12-28T12:05:22;100052.60;;;8.37;72.36
34696;BME280;75243;51.138;17.370;2023-12-28T12:08:25;100051.90;;;8.39;72.32
34696;BME280;75243;51.138;17.370;2023-12-28T12:11:35;100048.29;;;8.40;72.28
34696;BME280;75243;51.138;17.370;2023-12-28T12:14:38;100050.28;;;8.40;72.50
34696;BME280;75243;51.138;17.370;2023-12-28T12:17:39;100049.80;;;8.39;72.57
34696;BME280;75243;51.138;17.370;2023-12-28T12:20:40;100050.02;;;8.38;72.50
34696;BME280;75243;51.138;17.370;2023-12-28T12:23:40;100046.63;;;8.39;72.43
34696;BME280;75243;51.138;17.370;2023-12-28T12:26:41;100047.25;;;8.38;72.57
34696;BME280;75243;51.138;17.370;2023-12-28T12:29:47;100042.91;;;8.36;72.37
34696;BME280;75243;51.138;17.370;2023-12-28T12:32:49;100044.21;;;8.33;72.43
34696;BME280;75243;51.138;17.370;2023-12-28T12:35:50;100042.64;;;8.31;72.69
34696;BME280;75243;51.138;17.370;2023-12-28T12:38:51;100047.10;;;8.29;72.73
34696;BME280;75243;51.138;17.370;2023-12-28T12:41:52;100050.48;;;8.27;72.70
34696;BME280;75243;51.138;17.370;2023-12-28T12:44:53;100046.04;;;8.25;72.77
34696;BME280;75243;51.138;17.370;2023-12-28T12:47:54;100046.75;;;8.23;72.72
34696;BME280;75243;51.138;17.370;2023-12-28T12:50:55;100044.56;;;8.21;73.01
34696;BME280;75243;51.138;17.370;2023-12-28T12:54:00;100042.45;;;8.19;72.91
34696;BME280;75243;51.138;17.370;2023-12-28T12:57:02;100042.70;;;8.16;72.83
34696;BME280;75243;51.138;17.370;2023-12-28T13:00:08;100049.13;;;8.16;72.98
34696;BME280;75243;51.138;17.370;2023-12-28T13:03:09;100048.50;;;8.15;72.92
34696;BME280;75243;51.138;17.370;2023-12-28T13:06:10;100047.42;;;8.13;73.08
34696;BME280;75243;51.138;17.370;2023-12-28T13:09:11;100038.89;;;8.11;72.96
34696;BME280;75243;51.138;17.370;2023-12-28T13:12:12;100042.09;;;8.06;72.99
34696;BME280;75243;51.138;17.370;2023-12-28T13:15:16;100042.09;;;7.99;73.12
34696;BME280;75243;51.138;17.370;2023-12-28T13:18:17;100041.39;;;7.94;73.31
34696;BME280;75243;51.138;17.370;2023-12-28T13:21:18;100045.98;;;7.87;73.32
34696;BME280;75243;51.138;17.370;2023-12-28T13:24:19;100043.38;;;7.81;73.42
34696;BME280;75243;51.138;17.370;2023-12-28T13:27:19;100051.01;;;7.77;73.61
34696;BME280;75243;51.138;17.370;2023-12-28T13:30:20;100052.17;;;7.74;73.67
34696;BME280;75243;51.138;17.370;2023-12-28T13:33:22;100051.19;;;7.70;73.88
34696;BME280;75243;51.138;17.370;2023-12-28T13:36:27;100055.57;;;7.68;74.02
34696;BME280;75243;51.138;17.370;2023-12-28T13:39:29;100061.60;;;7.68;74.00
34696;BME280;75243;51.138;17.370;2023-12-28T13:42:39;100073.40;;;7.66;73.92
34696;BME280;75243;51.138;17.370;2023-12-28T13:45:40;100071.04;;;7.63;73.97
34696;BME280;75243;51.138;17.370;2023-12-28T13:48:45;100073.74;;;7.60;73.85
34696;BME280;75243;51.138;17.370;2023-12-28T13:51:49;100075.52;;;7.58;73.92
34696;BME280;75243;51.138;17.370;2023-12-28T13:54:50;100075.93;;;7.58;73.96
34696;BME280;75243;51.138;17.370;2023-12-28T13:57:50;100076.68;;;7.55;73.88
34696;BME280;75243;51.138;17.370;2023-12-28T14:00:51;100081.84;;;7.53;73.89
34696;BME280;75243;51.138;17.370;2023-12-28T14:03:52;100079.70;;;7.50;74.00
34696;BME280;75243;51.138;17.370;2023-12-28T14:06:52;100079.96;;;7.47;74.01
34696;BME280;75243;51.138;17.370;2023-12-28T14:09:53;100079.54;;;7.42;74.06
34696;BME280;75243;51.138;17.370;2023-12-28T14:12:54;100084.55;;;7.38;74.12
34696;BME280;75243;51.138;17.370;2023-12-28T14:15:55;100093.21;;;7.34;73.92
34696;BME280;75243;51.138;17.370;2023-12-28T14:18:57;100093.95;;;7.28;74.01
34696;BME280;75243;51.138;17.370;2023-12-28T14:22:01;100098.13;;;7.21;74.00
34696;BME280;75243;51.138;17.370;2023-12-28T14:25:02;100099.49;;;7.14;74.00
34696;BME280;75243;51.138;17.370;2023-12-28T14:28:03;100103.21;;;7.06;74.15
34696;BME280;75243;51.138;17.370;2023-12-28T14:31:04;100104.63;;;7.01;74.10
34696;BME280;75243;51.138;17.370;2023-12-28T14:34:05;100100.95;;;6.94;74.17
34696;BME280;75243;51.138;17.370;2023-12-28T14:37:06;100101.21;;;6.88;74.21
34696;BME280;75243;51.138;17.370;2023-12-28T14:40:08;100103.42;;;6.81;74.29
34696;BME280;75243;51.138;17.370;2023-12-28T14:43:11;100104.43;;;6.76;74.13
34696;BME280;75243;51.138;17.370;2023-12-28T14:46:12;100103.95;;;6.70;74.23
34696;BME280;75243;51.138;17.370;2023-12-28T14:49:13;100102.34;;;6.64;74.36
34696;BME280;75243;51.138;17.370;2023-12-28T14:52:14;100092.67;;;6.57;74.37
34696;BME280;75243;51.138;17.370;2023-12-28T14:55:18;100089.39;;;6.48;74.28
34696;BME280;75243;51.138;17.370;2023-12-28T14:58:19;100086.27;;;6.41;74.27
34696;BME280;75243;51.138;17.370;2023-12-28T15:01:22;100088.85;;;6.33;74.48
34696;BME280;75243;51.138;17.370;2023-12-28T15:04:26;100085.48;;;6.26;74.61
34696;BME280;75243;51.138;17.370;2023-12-28T15:07:34;100084.66;;;6.18;74.50
34696;BME280;75243;51.138;17.370;2023-12-28T15:10:37;100088.30;;;6.06;74.48
34696;BME280;75243;51.138;17.370;2023-12-28T15:13:39;100092.38;;;5.96;74.72
34696;BME280;75243;51.138;17.370;2023-12-28T15:16:43;100096.44;;;5.86;74.85
34696;BME280;75243;51.138;17.370;2023-12-28T15:19:44;100102.10;;;5.75;75.01
34696;BME280;75243;51.138;17.370;2023-12-28T15:22:45;100092.59;;;5.66;75.23
34696;BME280;75243;51.138;17.370;2023-12-28T15:25:46;100080.39;;;5.57;75.11
34696;BME280;75243;51.138;17.370;2023-12-28T15:28:50;100083.31;;;5.48;75.16
34696;BME280;75243;51.138;17.370;2023-12-28T15:31:50;100085.02;;;5.36;74.89
34696;BME280;75243;51.138;17.370;2023-12-28T15:34:51;100086.66;;;5.23;75.26
34696;BME280;75243;51.138;17.370;2023-12-28T15:37:52;100081.42;;;5.11;75.73
34696;BME280;75243;51.138;17.370;2023-12-28T15:40:53;100083.00;;;5.01;75.51
34696;BME280;75243;51.138;17.370;2023-12-28T15:43:53;100072.89;;;4.94;75.99
34696;BME280;75243;51.138;17.370;2023-12-28T15:46:54;100070.30;;;4.87;76.10
34696;BME280;75243;51.138;17.370;2023-12-28T15:49:55;100067.52;;;4.83;76.53
34696;BME280;75243;51.138;17.370;2023-12-28T15:53:04;100065.29;;;4.80;76.68
34696;BME280;75243;51.138;17.370;2023-12-28T15:56:05;100061.36;;;4.77;76.75
34696;BME280;75243;51.138;17.370;2023-12-28T15:59:08;100062.52;;;4.74;77.13
34696;BME280;75243;51.138;17.370;2023-12-28T16:02:09;100068.84;;;4.71;77.11
34696;BME280;75243;51.138;17.370;2023-12-28T16:05:10;100073.11;;;4.69;77.14
34696;BME280;75243;51.138;17.370;2023-12-28T16:08:13;100070.50;;;4.66;77.26
34696;BME280;75243;51.138;17.370;2023-12-28T16:11:16;100080.70;;;4.64;77.20
34696;BME280;75243;51.138;17.370;2023-12-28T16:14:17;100084.30;;;4.61;77.36
34696;BME280;75243;51.138;17.370;2023-12-28T16:17:19;100080.02;;;4.58;77.38
34696;BME280;75243;51.138;17.370;2023-12-28T16:20:20;100082.77;;;4.52;77.41
34696;BME280;75243;51.138;17.370;2023-12-28T16:23:21;100085.64;;;4.45;77.35
34696;BME280;75243;51.138;17.370;2023-12-28T16:26:22;100083.54;;;4.36;77.11
34696;BME280;75243;51.138;17.370;2023-12-28T16:29:26;100084.17;;;4.26;77.25
34696;BME280;75243;51.138;17.370;2023-12-28T16:32:29;100083.75;;;4.19;77.30
34696;BME280;75243;51.138;17.370;2023-12-28T16:35:30;100079.48;;;4.11;77.35
34696;BME280;75243;51.138;17.370;2023-12-28T16:38:31;100070.80;;;4.04;77.36
34696;BME280;75243;51.138;17.370;2023-12-28T16:41:31;100071.48;;;3.91;77.38